sensor_id;sensor_type;location;lat;lon;timestamp;P1;durP1;ratioP1;P2;durP2;ratioP2
76127;SDS011;64873;50.102;14.434;2023-11-19T00:00:15;7.95;;;5.72;;
76127;SDS011;64873;50.102;14.434;2023-11-19T00:02:41;11.25;;;6.70;;
76127;SDS011;64873;50.102;14.434;2023-11-19T00:05:07;9.55;;;5.30;;
76127;SDS011;64873;50.102;14.434;2023-11-19T00:07:38;14.75;;;6.45;;
76127;SDS011;64873;50.102;14.434;2023-11-19T00:10:14;9.27;;;5.55;;
76127;SDS011;64873;50.102;14.434;2023-11-19T00:12:47;13.27;;;6.47;;
76127;SDS011;64873;50.102;14.434;2023-11-19T00:15:14;9.30;;;5.78;;
76127;SDS011;64873;50.102;14.434;2023-11-19T00:17:41;12.20;;;6.07;;
76127;SDS011;64873;50.102;14.434;2023-11-19T00:20:13;14.05;;;6.25;;
76127;SDS011;64873;50.102;14.434;2023-11-19T00:22:40;8.20;;;5.38;;
76127;SDS011;64873;50.102;14.434;2023-11-19T00:25:09;7.75;;;4.70;;
76127;SDS011;64873;50.102;14.434;2023-11-19T00:27:35;12.57;;;6.50;;
76127;SDS011;64873;50.102;14.434;2023-11-19T00:30:02;9.60;;;5.32;;
76127;SDS011;64873;50.102;14.434;2023-11-19T00:32:30;9.20;;;5.75;;
76127;SDS011;64873;50.102;14.434;2023-11-19T00:34:56;9.80;;;5.68;;
76127;SDS011;64873;50.102;14.434;2023-11-19T00:37:22;10.82;;;5.40;;
76127;SDS011;64873;50.102;14.434;2023-11-19T00:39:47;9.82;;;5.88;;
76127;SDS011;64873;50.102;14.434;2023-11-19T00:42:13;10.68;;;5.93;;
76127;SDS011;64873;50.102;14.434;2023-11-19T00:44:39;8.95;;;5.10;;
76127;SDS011;64873;50.102;14.434;2023-11-19T00:47:04;8.48;;;4.80;;
76127;SDS011;64873;50.102;14.434;2023-11-19T00:49:30;10.18;;;5.07;;
76127;SDS011;64873;50.102;14.434;2023-11-19T00:51:57;8.85;;;4.72;;
76127;SDS011;64873;50.102;14.434;2023-11-19T00:54:24;7.53;;;5.00;;
76127;SDS011;64873;50.102;14.434;2023-11-19T00:56:51;8.75;;;5.10;;
76127;SDS011;64873;50.102;14.434;2023-11-19T00:59:20;7.45;;;4.70;;
76127;SDS011;64873;50.102;14.434;2023-11-19T01:01:45;10.93;;;5.28;;
76127;SDS011;64873;50.102;14.434;2023-11-19T01:04:13;11.73;;;5.82;;
76127;SDS011;64873;50.102;14.434;2023-11-19T01:06:39;11.52;;;5.93;;
76127;SDS011;64873;50.102;14.434;2023-11-19T01:09:05;9.10;;;4.70;;
76127;SDS011;64873;50.102;14.434;2023-11-19T01:11:30;12.20;;;5.90;;
76127;SDS011;64873;50.102;14.434;2023-11-19T01:13:56;8.40;;;5.15;;
76127;SDS011;64873;50.102;14.434;2023-11-19T01:16:22;7.30;;;4.90;;
76127;SDS011;64873;50.102;14.434;2023-11-19T01:18:48;9.20;;;5.43;;
76127;SDS011;64873;50.102;14.434;2023-11-19T01:21:13;10.20;;;6.40;;
76127;SDS011;64873;50.102;14.434;2023-11-19T01:23:40;9.65;;;6.18;;
76127;SDS011;64873;50.102;14.434;2023-11-19T01:26:08;10.77;;;6.07;;
76127;SDS011;64873;50.102;14.434;2023-11-19T01:28:35;9.35;;;5.78;;
76127;SDS011;64873;50.102;14.434;2023-11-19T01:31:00;10.30;;;5.97;;
76127;SDS011;64873;50.102;14.434;2023-11-19T01:33:26;13.25;;;6.43;;
76127;SDS011;64873;50.102;14.434;2023-11-19T01:35:53;12.18;;;6.13;;
76127;SDS011;64873;50.102;14.434;2023-11-19T01:38:18;11.00;;;6.25;;
76127;SDS011;64873;50.102;14.434;2023-11-19T01:40:44;11.50;;;6.10;;
76127;SDS011;64873;50.102;14.434;2023-11-19T01:43:09;11.38;;;6.53;;
76127;SDS011;64873;50.102;14.434;2023-11-19T01:45:36;11.90;;;6.85;;
76127;SDS011;64873;50.102;14.434;2023-11-19T01:48:03;12.13;;;6.15;;
76127;SDS011;64873;50.102;14.434;2023-11-19T01:50:29;10.32;;;5.97;;
76127;SDS011;64873;50.102;14.434;2023-11-19T01:52:55;9.30;;;5.55;;
76127;SDS011;64873;50.102;14.434;2023-11-19T01:55:25;9.32;;;5.43;;
76127;SDS011;64873;50.102;14.434;2023-11-19T01:57:53;8.65;;;4.72;;
76127;SDS011;64873;50.102;14.434;2023-11-19T02:00:24;9.13;;;5.47;;
76127;SDS011;64873;50.102;14.434;2023-11-19T02:02:50;9.85;;;5.53;;
76127;SDS011;64873;50.102;14.434;2023-11-19T02:05:17;10.48;;;5.65;;
76127;SDS011;64873;50.102;14.434;2023-11-19T02:07:43;8.77;;;5.50;;
76127;SDS011;64873;50.102;14.434;2023-11-19T02:10:08;10.25;;;5.72;;
76127;SDS011;64873;50.102;14.434;2023-11-19T02:12:42;10.63;;;5.30;;
76127;SDS011;64873;50.102;14.434;2023-11-19T02:15:08;9.98;;;5.38;;
76127;SDS011;64873;50.102;14.434;2023-11-19T02:17:35;7.82;;;5.22;;
76127;SDS011;64873;50.102;14.434;2023-11-19T02:20:02;10.52;;;5.47;;
76127;SDS011;64873;50.102;14.434;2023-11-19T02:22:34;11.10;;;5.50;;
76127;SDS011;64873;50.102;14.434;2023-11-19T02:25:00;9.95;;;5.75;;
76127;SDS011;64873;50.102;14.434;2023-11-19T02:30:15;10.00;;;5.45;;
76127;SDS011;64873;50.102;14.434;2023-11-19T02:32:42;8.88;;;5.38;;
76127;SDS011;64873;50.102;14.434;2023-11-19T02:35:07;9.88;;;5.43;;
76127;SDS011;64873;50.102;14.434;2023-11-19T02:37:34;10.55;;;5.53;;
76127;SDS011;64873;50.102;14.434;2023-11-19T02:39:59;11.65;;;6.28;;
76127;SDS011;64873;50.102;14.434;2023-11-19T02:42:29;10.13;;;5.53;;
76127;SDS011;64873;50.102;14.434;2023-11-19T02:44:54;10.43;;;6.20;;
76127;SDS011;64873;50.102;14.434;2023-11-19T02:47:20;10.68;;;6.28;;
76127;SDS011;64873;50.102;14.434;2023-11-19T02:49:46;12.68;;;7.00;;
76127;SDS011;64873;50.102;14.434;2023-11-19T02:52:12;12.20;;;6.93;;
76127;SDS011;64873;50.102;14.434;2023-11-19T02:54:39;11.30;;;7.00;;
76127;SDS011;64873;50.102;14.434;2023-11-19T02:57:06;11.48;;;6.57;;
76127;SDS011;64873;50.102;14.434;2023-11-19T02:59:33;14.98;;;6.78;;
76127;SDS011;64873;50.102;14.434;2023-11-19T03:02:04;10.40;;;6.53;;
76127;SDS011;64873;50.102;14.434;2023-11-19T03:07:03;9.43;;;5.75;;
76127;SDS011;64873;50.102;14.434;2023-11-19T03:09:28;10.25;;;6.43;;
76127;SDS011;64873;50.102;14.434;2023-11-19T03:11:54;9.90;;;6.28;;
76127;SDS011;64873;50.102;14.434;2023-11-19T03:14:20;12.65;;;6.93;;
76127;SDS011;64873;50.102;14.434;2023-11-19T03:16:45;9.70;;;6.28;;
76127;SDS011;64873;50.102;14.434;2023-11-19T03:19:13;11.93;;;6.55;;
76127;SDS011;64873;50.102;14.434;2023-11-19T03:21:40;11.27;;;6.00;;
76127;SDS011;64873;50.102;14.434;2023-11-19T03:24:05;9.13;;;5.53;;
76127;SDS011;64873;50.102;14.434;2023-11-19T03:26:32;9.20;;;5.60;;
76127;SDS011;64873;50.102;14.434;2023-11-19T03:28:58;12.30;;;7.53;;
76127;SDS011;64873;50.102;14.434;2023-11-19T03:31:24;12.10;;;6.70;;
76127;SDS011;64873;50.102;14.434;2023-11-19T03:33:50;16.38;;;6.20;;
76127;SDS011;64873;50.102;14.434;2023-11-19T03:36:15;10.07;;;6.15;;
76127;SDS011;64873;50.102;14.434;2023-11-19T03:38:40;10.25;;;5.78;;
76127;SDS011;64873;50.102;14.434;2023-11-19T03:41:16;10.13;;;5.72;;
76127;SDS011;64873;50.102;14.434;2023-11-19T03:43:42;7.57;;;5.07;;
76127;SDS011;64873;50.102;14.434;2023-11-19T03:46:17;7.85;;;5.15;;
76127;SDS011;64873;50.102;14.434;2023-11-19T03:48:44;9.07;;;5.78;;
76127;SDS011;64873;50.102;14.434;2023-11-19T03:51:11;8.75;;;5.43;;
76127;SDS011;64873;50.102;14.434;2023-11-19T03:53:40;9.77;;;5.15;;
76127;SDS011;64873;50.102;14.434;2023-11-19T03:56:11;9.87;;;5.83;;
76127;SDS011;64873;50.102;14.434;2023-11-19T03:58:39;8.55;;;5.30;;
76127;SDS011;64873;50.102;14.434;2023-11-19T04:01:05;11.35;;;5.45;;
76127;SDS011;64873;50.102;14.434;2023-11-19T04:03:31;9.13;;;5.63;;
76127;SDS011;64873;50.102;14.434;2023-11-19T04:05:56;8.98;;;4.97;;
76127;SDS011;64873;50.102;14.434;2023-11-19T04:08:22;8.65;;;5.50;;
76127;SDS011;64873;50.102;14.434;2023-11-19T04:10:47;12.02;;;6.25;;
76127;SDS011;64873;50.102;14.434;2023-11-19T04:13:13;8.27;;;5.15;;
76127;SDS011;64873;50.102;14.434;2023-11-19T04:15:39;8.85;;;5.85;;
76127;SDS011;64873;50.102;14.434;2023-11-19T04:18:04;9.73;;;5.30;;
76127;SDS011;64873;50.102;14.434;2023-11-19T04:20:30;7.85;;;4.90;;
76127;SDS011;64873;50.102;14.434;2023-11-19T04:22:56;7.32;;;4.57;;
76127;SDS011;64873;50.102;14.434;2023-11-19T04:25:22;8.10;;;4.70;;
76127;SDS011;64873;50.102;14.434;2023-11-19T04:27:47;7.38;;;4.75;;
76127;SDS011;64873;50.102;14.434;2023-11-19T04:30:14;10.18;;;5.50;;
76127;SDS011;64873;50.102;14.434;2023-11-19T04:32:40;6.90;;;4.55;;
76127;SDS011;64873;50.102;14.434;2023-11-19T04:35:05;7.28;;;4.85;;
76127;SDS011;64873;50.102;14.434;2023-11-19T04:37:32;9.38;;;5.25;;
76127;SDS011;64873;50.102;14.434;2023-11-19T04:39:57;7.30;;;4.82;;
76127;SDS011;64873;50.102;14.434;2023-11-19T04:42:23;7.50;;;4.97;;
76127;SDS011;64873;50.102;14.434;2023-11-19T04:44:49;6.20;;;4.43;;
76127;SDS011;64873;50.102;14.434;2023-11-19T04:47:14;7.68;;;5.15;;
76127;SDS011;64873;50.102;14.434;2023-11-19T04:49:40;8.50;;;5.50;;
76127;SDS011;64873;50.102;14.434;2023-11-19T04:52:08;7.53;;;5.10;;
76127;SDS011;64873;50.102;14.434;2023-11-19T04:54:33;8.57;;;4.82;;
76127;SDS011;64873;50.102;14.434;2023-11-19T04:56:59;7.25;;;4.95;;
76127;SDS011;64873;50.102;14.434;2023-11-19T04:59:24;8.32;;;4.97;;
76127;SDS011;64873;50.102;14.434;2023-11-19T05:01:50;7.68;;;4.88;;
76127;SDS011;64873;50.102;14.434;2023-11-19T05:04:15;7.90;;;4.88;;
76127;SDS011;64873;50.102;14.434;2023-11-19T05:06:41;9.93;;;5.32;;
76127;SDS011;64873;50.102;14.434;2023-11-19T05:09:06;7.00;;;4.40;;
76127;SDS011;64873;50.102;14.434;2023-11-19T05:11:37;8.82;;;4.63;;
76127;SDS011;64873;50.102;14.434;2023-11-19T05:14:04;6.53;;;3.95;;
76127;SDS011;64873;50.102;14.434;2023-11-19T05:16:30;6.55;;;4.18;;
76127;SDS011;64873;50.102;14.434;2023-11-19T05:18:55;9.18;;;5.40;;
76127;SDS011;64873;50.102;14.434;2023-11-19T05:21:21;8.80;;;4.95;;
76127;SDS011;64873;50.102;14.434;2023-11-19T05:23:46;9.23;;;5.80;;
76127;SDS011;64873;50.102;14.434;2023-11-19T05:26:21;6.68;;;4.35;;
76127;SDS011;64873;50.102;14.434;2023-11-19T05:28:48;8.68;;;4.68;;
76127;SDS011;64873;50.102;14.434;2023-11-19T05:31:14;11.93;;;5.45;;
76127;SDS011;64873;50.102;14.434;2023-11-19T05:33:40;8.13;;;5.20;;
76127;SDS011;64873;50.102;14.434;2023-11-19T05:36:06;8.10;;;4.72;;
76127;SDS011;64873;50.102;14.434;2023-11-19T05:38:33;8.43;;;4.72;;
76127;SDS011;64873;50.102;14.434;2023-11-19T05:41:01;6.80;;;4.85;;
76127;SDS011;64873;50.102;14.434;2023-11-19T05:43:27;6.00;;;4.25;;
76127;SDS011;64873;50.102;14.434;2023-11-19T05:45:53;6.15;;;4.00;;
76127;SDS011;64873;50.102;14.434;2023-11-19T05:48:18;7.22;;;4.30;;
76127;SDS011;64873;50.102;14.434;2023-11-19T05:50:43;7.28;;;4.93;;
76127;SDS011;64873;50.102;14.434;2023-11-19T05:53:09;6.88;;;4.55;;
76127;SDS011;64873;50.102;14.434;2023-11-19T05:55:38;6.55;;;4.45;;
76127;SDS011;64873;50.102;14.434;2023-11-19T05:58:25;7.68;;;4.82;;
76127;SDS011;64873;50.102;14.434;2023-11-19T06:00:54;8.48;;;5.30;;
76127;SDS011;64873;50.102;14.434;2023-11-19T06:03:22;7.45;;;4.80;;
76127;SDS011;64873;50.102;14.434;2023-11-19T06:05:48;8.98;;;4.60;;
76127;SDS011;64873;50.102;14.434;2023-11-19T06:08:14;7.40;;;4.55;;
76127;SDS011;64873;50.102;14.434;2023-11-19T06:10:40;7.13;;;4.90;;
76127;SDS011;64873;50.102;14.434;2023-11-19T06:13:06;9.63;;;5.00;;
76127;SDS011;64873;50.102;14.434;2023-11-19T06:15:31;6.80;;;4.10;;
76127;SDS011;64873;50.102;14.434;2023-11-19T06:17:58;9.48;;;4.85;;
76127;SDS011;64873;50.102;14.434;2023-11-19T06:20:26;6.45;;;4.47;;
76127;SDS011;64873;50.102;14.434;2023-11-19T06:22:53;8.77;;;4.85;;
76127;SDS011;64873;50.102;14.434;2023-11-19T06:25:19;7.25;;;4.57;;
76127;SDS011;64873;50.102;14.434;2023-11-19T06:27:44;8.32;;;4.90;;
76127;SDS011;64873;50.102;14.434;2023-11-19T06:30:10;7.68;;;4.90;;
76127;SDS011;64873;50.102;14.434;2023-11-19T06:32:36;7.63;;;4.40;;
76127;SDS011;64873;50.102;14.434;2023-11-19T06:35:02;6.82;;;4.45;;
76127;SDS011;64873;50.102;14.434;2023-11-19T06:37:29;5.97;;;3.88;;
76127;SDS011;64873;50.102;14.434;2023-11-19T06:39:55;7.65;;;3.97;;
76127;SDS011;64873;50.102;14.434;2023-11-19T06:42:21;6.63;;;4.10;;
76127;SDS011;64873;50.102;14.434;2023-11-19T06:44:46;5.72;;;4.07;;
76127;SDS011;64873;50.102;14.434;2023-11-19T06:47:11;6.68;;;4.30;;
76127;SDS011;64873;50.102;14.434;2023-11-19T06:49:37;7.28;;;4.38;;
76127;SDS011;64873;50.102;14.434;2023-11-19T06:52:02;5.93;;;3.88;;
76127;SDS011;64873;50.102;14.434;2023-11-19T06:54:29;7.55;;;4.50;;
76127;SDS011;64873;50.102;14.434;2023-11-19T06:56:55;8.68;;;4.15;;
76127;SDS011;64873;50.102;14.434;2023-11-19T06:59:22;6.70;;;3.80;;
76127;SDS011;64873;50.102;14.434;2023-11-19T07:01:47;6.78;;;4.28;;
76127;SDS011;64873;50.102;14.434;2023-11-19T07:04:13;5.60;;;3.70;;
76127;SDS011;64873;50.102;14.434;2023-11-19T07:06:38;5.07;;;3.53;;
76127;SDS011;64873;50.102;14.434;2023-11-19T07:09:06;4.40;;;3.33;;
76127;SDS011;64873;50.102;14.434;2023-11-19T07:11:38;5.68;;;3.85;;
76127;SDS011;64873;50.102;14.434;2023-11-19T07:14:04;5.30;;;3.42;;
76127;SDS011;64873;50.102;14.434;2023-11-19T07:16:31;4.20;;;3.08;;
76127;SDS011;64873;50.102;14.434;2023-11-19T07:18:59;6.28;;;3.90;;
76127;SDS011;64873;50.102;14.434;2023-11-19T07:21:25;7.97;;;3.97;;
76127;SDS011;64873;50.102;14.434;2023-11-19T07:23:53;4.93;;;3.30;;
76127;SDS011;64873;50.102;14.434;2023-11-19T07:26:19;5.30;;;3.60;;
76127;SDS011;64873;50.102;14.434;2023-11-19T07:28:44;5.63;;;3.53;;
76127;SDS011;64873;50.102;14.434;2023-11-19T07:31:10;5.70;;;3.67;;
76127;SDS011;64873;50.102;14.434;2023-11-19T07:33:36;5.35;;;3.75;;
76127;SDS011;64873;50.102;14.434;2023-11-19T07:36:01;6.00;;;3.85;;
76127;SDS011;64873;50.102;14.434;2023-11-19T07:38:27;5.97;;;3.53;;
76127;SDS011;64873;50.102;14.434;2023-11-19T07:40:52;5.22;;;3.58;;
76127;SDS011;64873;50.102;14.434;2023-11-19T07:43:18;5.55;;;4.10;;
76127;SDS011;64873;50.102;14.434;2023-11-19T07:45:43;6.03;;;3.67;;
76127;SDS011;64873;50.102;14.434;2023-11-19T07:48:10;5.93;;;3.80;;
76127;SDS011;64873;50.102;14.434;2023-11-19T07:50:38;6.28;;;3.78;;
76127;SDS011;64873;50.102;14.434;2023-11-19T07:53:06;6.25;;;3.75;;
76127;SDS011;64873;50.102;14.434;2023-11-19T07:55:34;5.45;;;3.85;;
76127;SDS011;64873;50.102;14.434;2023-11-19T07:58:00;9.18;;;4.50;;
76127;SDS011;64873;50.102;14.434;2023-11-19T08:00:26;5.15;;;3.60;;
76127;SDS011;64873;50.102;14.434;2023-11-19T08:02:51;5.95;;;3.85;;
76127;SDS011;64873;50.102;14.434;2023-11-19T08:05:17;5.45;;;4.00;;
76127;SDS011;64873;50.102;14.434;2023-11-19T08:07:42;5.30;;;3.50;;
76127;SDS011;64873;50.102;14.434;2023-11-19T08:10:08;7.25;;;3.80;;
76127;SDS011;64873;50.102;14.434;2023-11-19T08:12:36;6.95;;;4.38;;
76127;SDS011;64873;50.102;14.434;2023-11-19T08:15:05;7.13;;;4.55;;
76127;SDS011;64873;50.102;14.434;2023-11-19T08:17:32;6.40;;;4.40;;
76127;SDS011;64873;50.102;14.434;2023-11-19T08:19:57;7.15;;;4.80;;
76127;SDS011;64873;50.102;14.434;2023-11-19T08:22:25;8.35;;;4.60;;
76127;SDS011;64873;50.102;14.434;2023-11-19T08:24:50;8.05;;;4.75;;
76127;SDS011;64873;50.102;14.434;2023-11-19T08:27:15;6.70;;;4.07;;
76127;SDS011;64873;50.102;14.434;2023-11-19T08:29:41;5.40;;;3.97;;
76127;SDS011;64873;50.102;14.434;2023-11-19T08:32:06;9.23;;;4.78;;
76127;SDS011;64873;50.102;14.434;2023-11-19T08:34:32;6.40;;;4.18;;
76127;SDS011;64873;50.102;14.434;2023-11-19T08:36:58;7.68;;;4.68;;
76127;SDS011;64873;50.102;14.434;2023-11-19T08:39:25;9.30;;;4.53;;
76127;SDS011;64873;50.102;14.434;2023-11-19T08:41:50;7.18;;;4.30;;
76127;SDS011;64873;50.102;14.434;2023-11-19T08:44:16;6.30;;;4.32;;
76127;SDS011;64873;50.102;14.434;2023-11-19T08:46:50;9.02;;;4.45;;
76127;SDS011;64873;50.102;14.434;2023-11-19T08:49:16;5.88;;;3.90;;
76127;SDS011;64873;50.102;14.434;2023-11-19T08:51:42;6.43;;;4.00;;
76127;SDS011;64873;50.102;14.434;2023-11-19T08:54:07;8.98;;;4.90;;
76127;SDS011;64873;50.102;14.434;2023-11-19T08:56:33;6.03;;;4.45;;
76127;SDS011;64873;50.102;14.434;2023-11-19T08:59:00;6.95;;;4.65;;
76127;SDS011;64873;50.102;14.434;2023-11-19T09:01:26;7.38;;;4.65;;
76127;SDS011;64873;50.102;14.434;2023-11-19T09:03:51;6.53;;;4.25;;
76127;SDS011;64873;50.102;14.434;2023-11-19T09:06:17;6.75;;;4.13;;
76127;SDS011;64873;50.102;14.434;2023-11-19T09:08:42;6.85;;;4.07;;
76127;SDS011;64873;50.102;14.434;2023-11-19T09:11:08;6.80;;;4.50;;
76127;SDS011;64873;50.102;14.434;2023-11-19T09:13:34;6.22;;;4.15;;
76127;SDS011;64873;50.102;14.434;2023-11-19T09:16:00;6.70;;;4.30;;
76127;SDS011;64873;50.102;14.434;2023-11-19T09:18:28;6.47;;;4.63;;
76127;SDS011;64873;50.102;14.434;2023-11-19T09:20:54;6.78;;;4.30;;
76127;SDS011;64873;50.102;14.434;2023-11-19T09:23:20;6.97;;;4.65;;
76127;SDS011;64873;50.102;14.434;2023-11-19T09:25:45;7.20;;;4.57;;
76127;SDS011;64873;50.102;14.434;2023-11-19T09:28:11;6.47;;;4.35;;
76127;SDS011;64873;50.102;14.434;2023-11-19T09:30:36;8.75;;;4.78;;
76127;SDS011;64873;50.102;14.434;2023-11-19T09:33:01;8.00;;;4.40;;
76127;SDS011;64873;50.102;14.434;2023-11-19T09:35:27;8.10;;;4.90;;
76127;SDS011;64873;50.102;14.434;2023-11-19T09:37:52;8.75;;;5.05;;
76127;SDS011;64873;50.102;14.434;2023-11-19T09:40:18;7.13;;;5.03;;
76127;SDS011;64873;50.102;14.434;2023-11-19T09:42:44;7.28;;;4.53;;
76127;SDS011;64873;50.102;14.434;2023-11-19T09:45:16;8.82;;;4.57;;
76127;SDS011;64873;50.102;14.434;2023-11-19T09:47:43;5.88;;;4.28;;
76127;SDS011;64873;50.102;14.434;2023-11-19T09:50:11;9.35;;;5.53;;
76127;SDS011;64873;50.102;14.434;2023-11-19T09:52:47;7.53;;;5.07;;
76127;SDS011;64873;50.102;14.434;2023-11-19T09:55:13;8.40;;;5.35;;
76127;SDS011;64873;50.102;14.434;2023-11-19T09:57:39;8.27;;;5.43;;
76127;SDS011;64873;50.102;14.434;2023-11-19T10:00:07;8.02;;;5.47;;
76127;SDS011;64873;50.102;14.434;2023-11-19T10:02:35;6.80;;;4.75;;
76127;SDS011;64873;50.102;14.434;2023-11-19T10:05:02;11.50;;;5.38;;
76127;SDS011;64873;50.102;14.434;2023-11-19T10:07:31;7.95;;;5.45;;
76127;SDS011;64873;50.102;14.434;2023-11-19T10:10:01;6.45;;;4.35;;
76127;SDS011;64873;50.102;14.434;2023-11-19T10:12:29;12.05;;;4.82;;
76127;SDS011;64873;50.102;14.434;2023-11-19T10:14:58;7.68;;;5.03;;
76127;SDS011;64873;50.102;14.434;2023-11-19T10:17:32;7.95;;;5.32;;
76127;SDS011;64873;50.102;14.434;2023-11-19T10:19:58;7.47;;;5.03;;
76127;SDS011;64873;50.102;14.434;2023-11-19T10:22:24;7.30;;;4.47;;
76127;SDS011;64873;50.102;14.434;2023-11-19T10:24:50;6.15;;;4.32;;
76127;SDS011;64873;50.102;14.434;2023-11-19T10:27:16;6.20;;;3.88;;
76127;SDS011;64873;50.102;14.434;2023-11-19T10:29:44;8.73;;;3.53;;
76127;SDS011;64873;50.102;14.434;2023-11-19T10:32:12;5.60;;;3.13;;
76127;SDS011;64873;50.102;14.434;2023-11-19T10:34:38;3.72;;;2.30;;
76127;SDS011;64873;50.102;14.434;2023-11-19T10:37:04;4.10;;;2.50;;
76127;SDS011;64873;50.102;14.434;2023-11-19T10:42:19;3.75;;;2.10;;
76127;SDS011;64873;50.102;14.434;2023-11-19T10:44:45;2.55;;;1.40;;
76127;SDS011;64873;50.102;14.434;2023-11-19T10:47:10;2.88;;;1.42;;
76127;SDS011;64873;50.102;14.434;2023-11-19T10:49:38;2.38;;;1.40;;
76127;SDS011;64873;50.102;14.434;2023-11-19T10:52:05;2.63;;;0.90;;
76127;SDS011;64873;50.102;14.434;2023-11-19T10:54:32;1.00;;;0.60;;
76127;SDS011;64873;50.102;14.434;2023-11-19T10:56:59;1.75;;;0.60;;
76127;SDS011;64873;50.102;14.434;2023-11-19T10:59:30;1.50;;;0.80;;
76127;SDS011;64873;50.102;14.434;2023-11-19T11:04:25;11.57;;;2.72;;
76127;SDS011;64873;50.102;14.434;2023-11-19T11:06:56;3.25;;;0.80;;
76127;SDS011;64873;50.102;14.434;2023-11-19T11:09:25;1.60;;;0.75;;
76127;SDS011;64873;50.102;14.434;2023-11-19T11:11:52;1.45;;;0.70;;
76127;SDS011;64873;50.102;14.434;2023-11-19T11:14:20;1.80;;;0.70;;
76127;SDS011;64873;50.102;14.434;2023-11-19T11:16:48;2.38;;;0.93;;
76127;SDS011;64873;50.102;14.434;2023-11-19T11:19:15;1.23;;;0.80;;
76127;SDS011;64873;50.102;14.434;2023-11-19T11:21:42;1.98;;;0.80;;
76127;SDS011;64873;50.102;14.434;2023-11-19T11:27:16;1.25;;;0.70;;
76127;SDS011;64873;50.102;14.434;2023-11-19T11:38:12;2.25;;;0.73;;
76127;SDS011;64873;50.102;14.434;2023-11-19T11:40:40;2.60;;;0.70;;
76127;SDS011;64873;50.102;14.434;2023-11-19T11:43:43;1.60;;;0.85;;
76127;SDS011;64873;50.102;14.434;2023-11-19T11:48:57;1.73;;;0.80;;
76127;SDS011;64873;50.102;14.434;2023-11-19T11:54:09;1.80;;;0.95;;
76127;SDS011;64873;50.102;14.434;2023-11-19T11:57:00;1.73;;;0.70;;
76127;SDS011;64873;50.102;14.434;2023-11-19T12:02:03;2.85;;;1.05;;
76127;SDS011;64873;50.102;14.434;2023-11-19T12:04:29;2.13;;;0.80;;
76127;SDS011;64873;50.102;14.434;2023-11-19T12:07:17;1.70;;;0.80;;
76127;SDS011;64873;50.102;14.434;2023-11-19T12:10:28;3.03;;;1.17;;
76127;SDS011;64873;50.102;14.434;2023-11-19T12:12:36;2.88;;;0.93;;
76127;SDS011;64873;50.102;14.434;2023-11-19T12:15:07;3.30;;;1.10;;
76127;SDS011;64873;50.102;14.434;2023-11-19T12:20:14;3.00;;;1.10;;
76127;SDS011;64873;50.102;14.434;2023-11-19T12:22:43;2.90;;;1.00;;
76127;SDS011;64873;50.102;14.434;2023-11-19T12:25:13;2.58;;;0.90;;
76127;SDS011;64873;50.102;14.434;2023-11-19T12:27:39;1.67;;;0.80;;
76127;SDS011;64873;50.102;14.434;2023-11-19T12:30:23;2.78;;;0.80;;
76127;SDS011;64873;50.102;14.434;2023-11-19T12:32:50;2.38;;;1.10;;
76127;SDS011;64873;50.102;14.434;2023-11-19T12:35:16;2.67;;;1.15;;
76127;SDS011;64873;50.102;14.434;2023-11-19T12:37:42;1.67;;;0.82;;
76127;SDS011;64873;50.102;14.434;2023-11-19T12:42:46;4.03;;;0.80;;
76127;SDS011;64873;50.102;14.434;2023-11-19T12:45:12;1.80;;;0.68;;
76127;SDS011;64873;50.102;14.434;2023-11-19T12:47:39;2.10;;;0.88;;
76127;SDS011;64873;50.102;14.434;2023-11-19T12:50:08;1.20;;;0.80;;
76127;SDS011;64873;50.102;14.434;2023-11-19T12:52:37;2.05;;;0.75;;
76127;SDS011;64873;50.102;14.434;2023-11-19T12:57:52;1.95;;;0.90;;
76127;SDS011;64873;50.102;14.434;2023-11-19T13:00:20;2.60;;;0.93;;
76127;SDS011;64873;50.102;14.434;2023-11-19T13:02:53;4.40;;;1.20;;
76127;SDS011;64873;50.102;14.434;2023-11-19T13:05:23;1.85;;;0.90;;
76127;SDS011;64873;50.102;14.434;2023-11-19T13:07:57;1.48;;;0.80;;
76127;SDS011;64873;50.102;14.434;2023-11-19T13:10:30;5.45;;;1.42;;
76127;SDS011;64873;50.102;14.434;2023-11-19T13:13:07;4.60;;;1.30;;
76127;SDS011;64873;50.102;14.434;2023-11-19T13:15:33;3.42;;;1.08;;
76127;SDS011;64873;50.102;14.434;2023-11-19T13:18:02;1.60;;;1.00;;
76127;SDS011;64873;50.102;14.434;2023-11-19T13:20:28;2.08;;;0.95;;
76127;SDS011;64873;50.102;14.434;2023-11-19T13:22:58;3.72;;;1.25;;
76127;SDS011;64873;50.102;14.434;2023-11-19T13:25:25;5.32;;;2.03;;
76127;SDS011;64873;50.102;14.434;2023-11-19T13:28:01;2.00;;;0.82;;
76127;SDS011;64873;50.102;14.434;2023-11-19T13:30:27;2.03;;;1.00;;
76127;SDS011;64873;50.102;14.434;2023-11-19T13:32:54;2.65;;;0.98;;
76127;SDS011;64873;50.102;14.434;2023-11-19T13:35:20;1.40;;;0.80;;
76127;SDS011;64873;50.102;14.434;2023-11-19T13:37:47;1.55;;;0.80;;
76127;SDS011;64873;50.102;14.434;2023-11-19T13:40:12;4.95;;;1.20;;
76127;SDS011;64873;50.102;14.434;2023-11-19T13:42:41;3.97;;;1.13;;
76127;SDS011;64873;50.102;14.434;2023-11-19T13:45:11;2.35;;;1.10;;
76127;SDS011;64873;50.102;14.434;2023-11-19T13:47:39;2.47;;;1.10;;
76127;SDS011;64873;50.102;14.434;2023-11-19T13:50:07;2.55;;;1.30;;
76127;SDS011;64873;50.102;14.434;2023-11-19T13:52:34;2.45;;;1.40;;
76127;SDS011;64873;50.102;14.434;2023-11-19T13:54:59;3.08;;;1.50;;
76127;SDS011;64873;50.102;14.434;2023-11-19T13:57:25;2.95;;;1.48;;
76127;SDS011;64873;50.102;14.434;2023-11-19T13:59:51;3.17;;;1.48;;
76127;SDS011;64873;50.102;14.434;2023-11-19T14:02:16;3.08;;;1.77;;
76127;SDS011;64873;50.102;14.434;2023-11-19T14:04:41;2.35;;;1.38;;
76127;SDS011;64873;50.102;14.434;2023-11-19T14:07:07;2.33;;;1.25;;
76127;SDS011;64873;50.102;14.434;2023-11-19T14:09:32;2.70;;;1.45;;
76127;SDS011;64873;50.102;14.434;2023-11-19T14:11:58;3.10;;;1.10;;
76127;SDS011;64873;50.102;14.434;2023-11-19T14:14:23;3.53;;;1.67;;
76127;SDS011;64873;50.102;14.434;2023-11-19T14:16:49;4.40;;;1.95;;
76127;SDS011;64873;50.102;14.434;2023-11-19T14:19:14;3.67;;;1.50;;
76127;SDS011;64873;50.102;14.434;2023-11-19T14:21:40;4.97;;;1.30;;
76127;SDS011;64873;50.102;14.434;2023-11-19T14:24:05;2.05;;;1.02;;
76127;SDS011;64873;50.102;14.434;2023-11-19T14:26:31;2.28;;;1.17;;
76127;SDS011;64873;50.102;14.434;2023-11-19T14:28:56;3.70;;;1.30;;
76127;SDS011;64873;50.102;14.434;2023-11-19T14:31:22;3.22;;;1.77;;
76127;SDS011;64873;50.102;14.434;2023-11-19T14:33:47;2.00;;;1.20;;
76127;SDS011;64873;50.102;14.434;2023-11-19T14:36:13;2.20;;;1.20;;
76127;SDS011;64873;50.102;14.434;2023-11-19T14:38:39;1.67;;;1.10;;
76127;SDS011;64873;50.102;14.434;2023-11-19T14:41:05;3.13;;;1.17;;
76127;SDS011;64873;50.102;14.434;2023-11-19T14:43:30;2.13;;;1.20;;
76127;SDS011;64873;50.102;14.434;2023-11-19T14:45:56;3.00;;;1.33;;
76127;SDS011;64873;50.102;14.434;2023-11-19T14:48:21;4.90;;;1.45;;
76127;SDS011;64873;50.102;14.434;2023-11-19T14:50:47;4.60;;;1.50;;
76127;SDS011;64873;50.102;14.434;2023-11-19T14:53:12;3.85;;;1.45;;
76127;SDS011;64873;50.102;14.434;2023-11-19T14:55:38;3.47;;;1.67;;
76127;SDS011;64873;50.102;14.434;2023-11-19T14:58:03;3.55;;;1.40;;
76127;SDS011;64873;50.102;14.434;2023-11-19T15:00:28;3.03;;;1.25;;
76127;SDS011;64873;50.102;14.434;2023-11-19T15:02:54;2.28;;;1.20;;
76127;SDS011;64873;50.102;14.434;2023-11-19T15:05:21;3.45;;;1.30;;
76127;SDS011;64873;50.102;14.434;2023-11-19T15:07:46;3.15;;;1.73;;
76127;SDS011;64873;50.102;14.434;2023-11-19T15:10:13;3.78;;;1.33;;